SWR10B EDDM-LSZH
Flight info
| Callsign | SWR10B |
|---|---|
| Flight time | 0h 33m |
| Altitude | 20000 |
| Route | MERSI4E/08R MERSI Y100 MOMUK Y112 RAVED L856 NEGRA NEGRA2A |
| Aircraft | A320/M-SDE3FGHIRWY/LB1 |
Departure
| Time | 2026-05-01 12:58 |
|---|---|
| Airport | Munich Airport (EDDM) |
Arrival
| Time | 2026-05-01 13:31 |
|---|---|
| Airport | Zürich Airport (LSZH) |
| Time | Latitude | Longitude | Altitude | Speed | Heading |
|---|---|---|---|---|---|
| 2026-05-01 12:20 | 48.35202 | 11.79787 | 1458 ft | 0 kts | 83° |
| 2026-05-01 12:39 | 48.35201 | 11.79785 | 1467 ft | 2 kts | 83° |
| 2026-05-01 12:39 | 48.35199 | 11.79747 | 1458 ft | 4 kts | 86° |
| 2026-05-01 12:39 | 48.35198 | 11.79706 | 1460 ft | 4 kts | 91° |
| 2026-05-01 12:39 | 48.35201 | 11.79667 | 1458 ft | 4 kts | 107° |
| 2026-05-01 12:40 | 48.35212 | 11.79636 | 1456 ft | 4 kts | 159° |
| 2026-05-01 12:40 | 48.35217 | 11.79633 | 1456 ft | 0 kts | 173° |
| 2026-05-01 12:45 | 48.35169 | 11.79642 | 1464 ft | 4 kts | 175° |
| 2026-05-01 12:45 | 48.35113 | 11.79650 | 1467 ft | 9 kts | 177° |
| 2026-05-01 12:45 | 48.35044 | 11.79662 | 1464 ft | 10 kts | 172° |
| 2026-05-01 12:46 | 48.34986 | 11.79620 | 1463 ft | 9 kts | 247° |
| 2026-05-01 12:46 | 48.34956 | 11.79549 | 1465 ft | 7 kts | 208° |
| 2026-05-01 12:46 | 48.34907 | 11.79548 | 1458 ft | 7 kts | 175° |
| 2026-05-01 12:46 | 48.34864 | 11.79556 | 1461 ft | 0 kts | 173° |
| 2026-05-01 12:49 | 48.34857 | 11.79558 | 1463 ft | 5 kts | 173° |
| 2026-05-01 12:50 | 48.34799 | 11.79548 | 1466 ft | 10 kts | 216° |
| 2026-05-01 12:50 | 48.34782 | 11.79452 | 1463 ft | 11 kts | 263° |
| 2026-05-01 12:50 | 48.34773 | 11.79349 | 1467 ft | 8 kts | 258° |
| 2026-05-01 12:50 | 48.34765 | 11.79245 | 1463 ft | 17 kts | 263° |
| 2026-05-01 12:51 | 48.34750 | 11.79040 | 1464 ft | 19 kts | 262° |
| 2026-05-01 12:51 | 48.34735 | 11.78847 | 1463 ft | 18 kts | 263° |
| 2026-05-01 12:51 | 48.34708 | 11.78489 | 1462 ft | 18 kts | 265° |
| 2026-05-01 12:52 | 48.34694 | 11.78282 | 1459 ft | 20 kts | 264° |
| 2026-05-01 12:52 | 48.34659 | 11.77841 | 1466 ft | 26 kts | 265° |
| 2026-05-01 12:52 | 48.34639 | 11.77584 | 1466 ft | 24 kts | 263° |
| 2026-05-01 12:53 | 48.34605 | 11.77132 | 1466 ft | 19 kts | 268° |
| 2026-05-01 12:53 | 48.34591 | 11.76954 | 1466 ft | 17 kts | 264° |
| 2026-05-01 12:53 | 48.34576 | 11.76766 | 1464 ft | 19 kts | 263° |
| 2026-05-01 12:54 | 48.34565 | 11.76625 | 1457 ft | 21 kts | 262° |
| 2026-05-01 12:54 | 48.34530 | 11.76150 | 1466 ft | 25 kts | 263° |
| 2026-05-01 12:54 | 48.34512 | 11.75894 | 1460 ft | 24 kts | 268° |
| 2026-05-01 12:55 | 48.34481 | 11.75542 | 1462 ft | 14 kts | 264° |
| 2026-05-01 12:55 | 48.34470 | 11.75390 | 1466 ft | 18 kts | 264° |
| 2026-05-01 12:55 | 48.34449 | 11.75245 | 1459 ft | 12 kts | 235° |
| 2026-05-01 12:56 | 48.34364 | 11.75215 | 1466 ft | 14 kts | 175° |
| 2026-05-01 12:56 | 48.34264 | 11.75233 | 1464 ft | 15 kts | 173° |
| 2026-05-01 12:56 | 48.34159 | 11.75253 | 1468 ft | 15 kts | 173° |
| 2026-05-01 12:56 | 48.34093 | 11.75318 | 1472 ft | 12 kts | 111° |
| 2026-05-01 12:57 | 48.34098 | 11.75530 | 1472 ft | 41 kts | 83° |
| 2026-05-01 12:57 | 48.34266 | 11.77696 | 1464 ft | 158 kts | 83° |
| 2026-05-01 12:57 | 48.34395 | 11.79478 | 1796 ft | 175 kts | 84° |
| 2026-05-01 12:58 | 48.34540 | 11.81282 | 2665 ft | 174 kts | 83° |
| 2026-05-01 12:58 | 48.34685 | 11.83128 | 3362 ft | 183 kts | 83° |
| 2026-05-01 12:58 | 48.34858 | 11.85141 | 3832 ft | 206 kts | 82° |
| 2026-05-01 12:59 | 48.35294 | 11.89706 | 5280 ft | 230 kts | 82° |
| 2026-05-01 12:59 | 48.35522 | 11.92110 | 6164 ft | 233 kts | 85° |
| 2026-05-01 12:59 | 48.34771 | 11.96800 | 7786 ft | 241 kts | 131° |
| 2026-05-01 13:00 | 48.32091 | 12.00074 | 9455 ft | 254 kts | 141° |
| 2026-05-01 13:00 | 48.30610 | 12.01577 | 10286 ft | 261 kts | 149° |
| 2026-05-01 13:01 | 48.26886 | 12.02668 | 11369 ft | 297 kts | 180° |
| 2026-05-01 13:01 | 48.24789 | 12.02496 | 12023 ft | 304 kts | 180° |
| 2026-05-01 13:01 | 48.20480 | 12.02230 | 13505 ft | 315 kts | 179° |
| 2026-05-01 13:02 | 48.18272 | 12.02110 | 14219 ft | 320 kts | 179° |
| 2026-05-01 13:07 | 47.99719 | 11.34363 | 20356 ft | 423 kts | 267° |
| 2026-05-01 13:07 | 47.99507 | 11.30030 | 20354 ft | 423 kts | 267° |
| 2026-05-01 13:07 | 47.99289 | 11.25613 | 20354 ft | 423 kts | 267° |
| 2026-05-01 13:08 | 47.99072 | 11.21242 | 20339 ft | 423 kts | 267° |
| 2026-05-01 13:08 | 47.98854 | 11.16858 | 20340 ft | 423 kts | 267° |
| 2026-05-01 13:08 | 47.98634 | 11.12485 | 20341 ft | 423 kts | 267° |
| 2026-05-01 13:08 | 47.98412 | 11.08109 | 20330 ft | 423 kts | 267° |
| 2026-05-01 13:09 | 47.98086 | 11.03806 | 20336 ft | 423 kts | 260° |
| 2026-05-01 13:09 | 47.97364 | 10.99487 | 20342 ft | 424 kts | 256° |
| 2026-05-01 13:09 | 47.96598 | 10.95244 | 20346 ft | 423 kts | 256° |
| 2026-05-01 13:09 | 47.95839 | 10.91006 | 20350 ft | 423 kts | 256° |
| 2026-05-01 13:10 | 47.95081 | 10.86767 | 20349 ft | 423 kts | 256° |
| 2026-05-01 13:10 | 47.94329 | 10.82575 | 20348 ft | 423 kts | 256° |
| 2026-05-01 13:10 | 47.93566 | 10.78334 | 20346 ft | 423 kts | 256° |
| 2026-05-01 13:10 | 47.92800 | 10.74109 | 20347 ft | 423 kts | 256° |
| 2026-05-01 13:11 | 47.92028 | 10.69868 | 20343 ft | 422 kts | 256° |
| 2026-05-01 13:11 | 47.91259 | 10.65647 | 20340 ft | 422 kts | 256° |
| 2026-05-01 13:11 | 47.90488 | 10.61415 | 20324 ft | 422 kts | 255° |
| 2026-05-01 13:11 | 47.89725 | 10.57242 | 20326 ft | 422 kts | 255° |
| 2026-05-01 13:12 | 47.88949 | 10.53015 | 20321 ft | 422 kts | 256° |
| 2026-05-01 13:12 | 47.88175 | 10.48804 | 20330 ft | 422 kts | 256° |
| 2026-05-01 13:12 | 47.87401 | 10.44593 | 20329 ft | 421 kts | 255° |
| 2026-05-01 13:12 | 47.86624 | 10.40385 | 20315 ft | 421 kts | 255° |
| 2026-05-01 13:13 | 47.85879 | 10.36366 | 20313 ft | 421 kts | 255° |
| 2026-05-01 13:13 | 47.85311 | 10.32062 | 20297 ft | 420 kts | 264° |
| 2026-05-01 13:13 | 47.85081 | 10.27732 | 20320 ft | 419 kts | 268° |
| 2026-05-01 13:13 | 47.84885 | 10.23407 | 20322 ft | 420 kts | 267° |
| 2026-05-01 13:14 | 47.84688 | 10.19067 | 20311 ft | 420 kts | 268° |
| 2026-05-01 13:14 | 47.84500 | 10.14786 | 20310 ft | 420 kts | 267° |
| 2026-05-01 13:14 | 47.84318 | 10.10598 | 20318 ft | 419 kts | 267° |
| 2026-05-01 13:14 | 47.84135 | 10.06266 | 20315 ft | 419 kts | 267° |
| 2026-05-01 13:15 | 47.83847 | 10.01954 | 20312 ft | 420 kts | 261° |
| 2026-05-01 13:15 | 47.83099 | 9.97765 | 20312 ft | 420 kts | 250° |
| 2026-05-01 13:15 | 47.81916 | 9.93822 | 20319 ft | 420 kts | 244° |
| 2026-05-01 13:15 | 47.80618 | 9.89926 | 20307 ft | 420 kts | 244° |
| 2026-05-01 13:16 | 47.79446 | 9.86409 | 20311 ft | 420 kts | 244° |
| 2026-05-01 13:16 | 47.78145 | 9.82525 | 20312 ft | 420 kts | 244° |
| 2026-05-01 13:16 | 47.76888 | 9.78783 | 20315 ft | 420 kts | 244° |
| 2026-05-01 13:17 | 47.73327 | 9.67035 | 20302 ft | 435 kts | 256° |
| 2026-05-01 13:17 | 47.72830 | 9.62928 | 20299 ft | 442 kts | 265° |
| 2026-05-01 13:18 | 47.72553 | 9.53661 | 19858 ft | 451 kts | 268° |
| 2026-05-01 13:18 | 47.72410 | 9.48991 | 19380 ft | 453 kts | 266° |
| 2026-05-01 13:18 | 47.71854 | 9.44454 | 18908 ft | 443 kts | 253° |
| 2026-05-01 13:18 | 47.70691 | 9.40399 | 18431 ft | 434 kts | 240° |
| 2026-05-01 13:19 | 47.68976 | 9.36780 | 17901 ft | 426 kts | 230° |
| 2026-05-01 13:19 | 47.67117 | 9.33408 | 17374 ft | 419 kts | 230° |
| 2026-05-01 13:19 | 47.63479 | 9.26805 | 16356 ft | 408 kts | 230° |
| 2026-05-01 13:20 | 47.61696 | 9.23561 | 15846 ft | 403 kts | 230° |
| 2026-05-01 13:20 | 47.60102 | 9.20212 | 15351 ft | 388 kts | 240° |
| 2026-05-01 13:20 | 47.59064 | 9.16637 | 14811 ft | 373 kts | 253° |
| 2026-05-01 13:21 | 47.58087 | 9.09335 | 13575 ft | 353 kts | 259° |
| 2026-05-01 13:21 | 47.57654 | 9.05800 | 12924 ft | 343 kts | 259° |
| 2026-05-01 13:21 | 47.57475 | 9.02325 | 12287 ft | 335 kts | 271° |
| 2026-05-01 13:21 | 47.57625 | 8.98926 | 11671 ft | 327 kts | 273° |
| 2026-05-01 13:22 | 47.57772 | 8.95875 | 11112 ft | 321 kts | 273° |
| 2026-05-01 13:22 | 47.57927 | 8.92599 | 10511 ft | 316 kts | 272° |
| 2026-05-01 13:22 | 47.58075 | 8.89430 | 9965 ft | 307 kts | 272° |
| 2026-05-01 13:22 | 47.58218 | 8.86365 | 9456 ft | 298 kts | 272° |
| 2026-05-01 13:23 | 47.58360 | 8.83345 | 8946 ft | 290 kts | 273° |
| 2026-05-01 13:23 | 47.58496 | 8.80398 | 8439 ft | 283 kts | 273° |
| 2026-05-01 13:23 | 47.58627 | 8.77522 | 8000 ft | 279 kts | 272° |
| 2026-05-01 13:23 | 47.58755 | 8.74644 | 7577 ft | 280 kts | 273° |
| 2026-05-01 13:24 | 47.58882 | 8.71790 | 7158 ft | 273 kts | 273° |
| 2026-05-01 13:24 | 47.59004 | 8.69050 | 6753 ft | 263 kts | 274° |
| 2026-05-01 13:24 | 47.59124 | 8.66404 | 6325 ft | 256 kts | 274° |
| 2026-05-01 13:25 | 47.59358 | 8.61226 | 5464 ft | 246 kts | 274° |
| 2026-05-01 13:25 | 47.59467 | 8.58740 | 5053 ft | 239 kts | 274° |
| 2026-05-01 13:25 | 47.59572 | 8.56321 | 4681 ft | 231 kts | 274° |
| 2026-05-01 13:25 | 47.59670 | 8.54008 | 4343 ft | 225 kts | 274° |
| 2026-05-01 13:26 | 47.59767 | 8.51744 | 4042 ft | 219 kts | 274° |
| 2026-05-01 13:26 | 47.59862 | 8.49543 | 3999 ft | 204 kts | 274° |
| 2026-05-01 13:26 | 47.59949 | 8.47500 | 4003 ft | 199 kts | 274° |
| 2026-05-01 13:26 | 47.59936 | 8.45511 | 3969 ft | 185 kts | 257° |
| 2026-05-01 13:27 | 47.59390 | 8.43835 | 3848 ft | 180 kts | 228° |
| 2026-05-01 13:27 | 47.58414 | 8.42751 | 3716 ft | 173 kts | 199° |
| 2026-05-01 13:27 | 47.56185 | 8.42864 | 3500 ft | 157 kts | 148° |
| 2026-05-01 13:28 | 47.54588 | 8.44868 | 3161 ft | 145 kts | 135° |
| 2026-05-01 13:28 | 47.53955 | 8.45735 | 2975 ft | 141 kts | 134° |
| 2026-05-01 13:29 | 47.52530 | 8.47690 | 2608 ft | 138 kts | 134° |
| 2026-05-01 13:29 | 47.51123 | 8.49623 | 2194 ft | 139 kts | 134° |
| 2026-05-01 13:30 | 47.48231 | 8.53571 | 1445 ft | 145 kts | 134° |
| 2026-05-01 13:31 | 47.47322 | 8.54834 | 1402 ft | 91 kts | 136° |
| 2026-05-01 13:31 | 47.46688 | 8.55620 | 1401 ft | 11 kts | 179° |